Bloomingport, Indiana
Current Conditions -  °F | °C
As of 8:15 AM on Sunday 21 Dec 2014 (Local Time) from KVES Reporting Station
Haze Haze  
Wind Chill: 19°   Ceiling: Unl
Heat Index: 19°   Visibility: 3mi
Dew Point: 19°   Wind: 3mph
Humidity: 100%   Direction: 140°SE
Pressure: 30.29"   Gusts: NA
Location:  40.0606°N, 84.9258°W
Report Text: KVES 211315Z AUTO 14003KT 3SM BR CLR M07/M07 A3029 RMK AO2
Loading
Personal Weather Stations






























Interactive Weather Map New forecast layout! Learn more

10-Day Weather Forecast

Advertisements
Track Severe Weather on mobile